createdAt,value
2019-04-01T00:02:05.150Z,2.40
2019-04-01T00:06:10.518Z,2.30
2019-04-01T00:10:15.750Z,2.30
2019-04-01T00:14:20.742Z,2.30
2019-04-01T00:18:25.744Z,2.20
2019-04-01T00:22:30.782Z,2.20
2019-04-01T00:26:35.832Z,2.10
2019-04-01T00:30:40.861Z,2.10
2019-04-01T00:34:45.834Z,2.10
2019-04-01T00:38:50.826Z,2.00
2019-04-01T00:43:03.829Z,1.90
2019-04-01T00:47:08.817Z,1.90
2019-04-01T00:51:14.782Z,1.90
2019-04-01T00:55:19.930Z,1.80
2019-04-01T00:59:24.899Z,1.80
2019-04-01T01:03:29.903Z,1.80
2019-04-01T01:07:34.897Z,1.80
2019-04-01T01:11:39.905Z,1.80
2019-04-01T01:15:44.902Z,1.80
2019-04-01T01:19:49.879Z,1.80
2019-04-01T01:23:54.910Z,1.70
2019-04-01T01:27:59.911Z,1.60
2019-04-01T01:32:04.936Z,1.50
2019-04-01T01:36:09.933Z,1.40
2019-04-01T01:40:14.934Z,1.40
2019-04-01T01:44:19.941Z,1.30
2019-04-01T01:48:24.917Z,1.20
2019-04-01T01:52:29.914Z,1.10
2019-04-01T01:56:34.902Z,1.10
2019-04-01T02:00:41.546Z,1.00
2019-04-01T02:04:48.113Z,0.90
2019-04-01T02:08:53.163Z,0.80
2019-04-01T02:12:58.221Z,0.70
2019-04-01T02:17:03.257Z,0.70
2019-04-01T02:21:08.261Z,0.60
2019-04-01T02:25:13.333Z,0.60
2019-04-01T02:29:18.333Z,0.50
2019-04-01T02:33:23.334Z,0.50
2019-04-01T02:37:28.338Z,0.30
2019-04-01T02:41:33.337Z,0.20
2019-04-01T02:45:38.312Z,0.20
2019-04-01T02:49:43.301Z,0.20
2019-04-01T02:53:48.301Z,0.10
2019-04-01T02:57:53.383Z,0.10
2019-04-01T03:01:58.387Z,-0.10
2019-04-01T03:06:03.407Z,-0.20
2019-04-01T03:10:08.493Z,-0.20
2019-04-01T03:14:13.496Z,-0.20
2019-04-01T03:18:18.495Z,-0.30
2019-04-01T03:22:23.573Z,-0.30
2019-04-01T03:26:28.612Z,-0.40
2019-04-01T03:30:33.582Z,-0.40
2019-04-01T03:34:38.589Z,-0.40
2019-04-01T03:38:43.600Z,-0.30
2019-04-01T03:42:48.611Z,-0.40
2019-04-01T03:46:53.616Z,-0.40
2019-04-01T03:50:58.898Z,-0.40
2019-04-01T03:55:03.986Z,-0.50
2019-04-01T03:59:09.012Z,-0.60
2019-04-01T04:03:13.998Z,-0.70
2019-04-01T04:07:18.999Z,-0.70
2019-04-01T04:11:24.062Z,-0.60
2019-04-01T04:15:29.063Z,-0.50
2019-04-01T04:19:34.062Z,-0.40
2019-04-01T04:23:39.089Z,-0.40
2019-04-01T04:27:44.097Z,-0.50
2019-04-01T04:31:49.094Z,-0.50
2019-04-01T04:35:54.068Z,-0.60
2019-04-01T04:39:59.205Z,-0.50
2019-04-01T04:44:04.214Z,-0.50
2019-04-01T04:48:09.245Z,-0.40
2019-04-01T04:52:14.261Z,-0.40
2019-04-01T04:56:19.716Z,-0.40
2019-04-01T05:00:24.768Z,-0.30
2019-04-01T05:04:29.770Z,-0.20
2019-04-01T05:08:34.841Z,-0.10
2019-04-01T05:12:39.833Z,0.60
2019-04-01T05:16:44.884Z,2.40
2019-04-01T05:20:50.510Z,3.90
2019-04-01T05:24:57.493Z,5.30
2019-04-01T05:29:04.277Z,7.30
2019-04-01T05:33:12.713Z,9.10
2019-04-01T05:37:18.037Z,10.00
2019-04-01T05:41:23.297Z,10.90
2019-04-01T05:45:28.648Z,11.10
2019-04-01T05:49:34.044Z,11.80
2019-04-01T05:53:39.401Z,12.60
2019-04-01T05:57:45.194Z,13.60
2019-04-01T06:01:50.982Z,14.50
2019-04-01T06:05:56.429Z,15.10
2019-04-01T06:10:01.887Z,16.30
2019-04-01T06:14:07.161Z,16.50
2019-04-01T06:18:12.993Z,17.00
2019-04-01T06:22:18.369Z,17.80
2019-04-01T06:26:23.657Z,18.80
2019-04-01T06:30:30.803Z,19.50
2019-04-01T06:34:36.082Z,19.90
2019-04-01T06:38:41.729Z,21.60
2019-04-01T06:42:47.373Z,22.80
2019-04-01T06:46:52.806Z,21.70
2019-04-01T06:50:58.135Z,20.70
2019-04-01T06:55:03.917Z,20.90
2019-04-01T06:59:09.565Z,21.40
2019-04-01T07:03:18.340Z,20.60
2019-04-01T07:07:21.735Z,20.70
2019-04-01T07:11:27.070Z,20.60
2019-04-01T07:15:32.668Z,20.50
2019-04-01T07:19:37.945Z,21.80
2019-04-01T07:23:43.761Z,23.30
2019-04-01T07:27:49.111Z,22.80
2019-04-01T07:31:54.385Z,23.00
2019-04-01T07:35:59.685Z,23.00
2019-04-01T07:40:13.804Z,22.50
2019-04-01T07:44:17.812Z,22.80
2019-04-01T07:48:23.095Z,22.60
2019-04-01T07:52:28.526Z,23.50
2019-04-01T07:56:33.802Z,24.30
2019-04-01T08:00:39.080Z,24.10
2019-04-01T08:04:44.834Z,25.40
2019-04-01T08:08:50.291Z,24.50
2019-04-01T08:12:55.545Z,24.80
2019-04-01T08:17:00.980Z,24.50
2019-04-01T08:21:06.268Z,24.40
2019-04-01T08:25:11.611Z,23.90
2019-04-01T08:29:29.357Z,24.50
2019-04-01T08:33:23.866Z,24.10
2019-04-01T08:37:29.597Z,23.90
2019-04-01T08:41:34.942Z,21.90
2019-04-01T08:45:41.854Z,22.40
2019-04-01T08:49:47.213Z,21.00
2019-04-01T08:53:52.683Z,20.80
2019-04-01T08:57:57.937Z,21.60
2019-04-01T09:02:17.023Z,22.10
2019-04-01T09:06:10.940Z,22.30
2019-04-01T09:10:16.486Z,21.90
2019-04-01T09:14:23.098Z,20.50
2019-04-01T09:18:28.362Z,21.90
2019-04-01T09:22:33.651Z,22.60
2019-04-01T09:26:38.929Z,22.40
2019-04-01T09:30:44.215Z,21.70
2019-04-01T09:34:49.502Z,20.40
2019-04-01T09:38:55.309Z,20.40
2019-04-01T09:43:00.834Z,21.50
2019-04-01T09:47:06.183Z,23.40
2019-04-01T09:51:11.606Z,23.10
2019-04-01T09:55:16.951Z,21.90
2019-04-01T09:59:22.298Z,21.60
2019-04-01T10:03:27.595Z,22.30
2019-04-01T10:07:32.902Z,22.90
2019-04-01T10:11:38.153Z,24.10
2019-04-01T10:15:43.513Z,22.90
2019-04-01T10:19:48.789Z,22.50
2019-04-01T10:23:54.119Z,20.50
2019-04-01T10:27:59.491Z,21.40
2019-04-01T10:32:05.098Z,20.70
2019-04-01T10:36:10.373Z,21.60
2019-04-01T10:40:15.794Z,20.10
2019-04-01T10:44:21.117Z,20.30
2019-04-01T10:48:26.394Z,20.00
2019-04-01T10:52:31.683Z,20.20
2019-04-01T10:56:37.048Z,20.10
2019-04-01T11:00:43.570Z,20.60
2019-04-01T11:04:49.070Z,21.00
2019-04-01T11:08:54.294Z,20.20
2019-04-01T11:12:59.609Z,19.40
2019-04-01T11:17:04.961Z,19.80
2019-04-01T11:21:10.315Z,18.90
2019-04-01T11:25:16.234Z,20.10
2019-04-01T11:29:21.556Z,21.30
2019-04-01T11:33:26.859Z,19.80
2019-04-01T11:37:32.163Z,18.50
2019-04-01T11:41:37.432Z,18.50
2019-04-01T11:45:42.940Z,19.00
2019-04-01T11:49:48.149Z,18.80
2019-04-01T11:53:53.431Z,19.10
2019-04-01T11:57:58.714Z,17.50
2019-04-01T12:02:04.058Z,16.50
2019-04-01T12:06:09.433Z,16.30
2019-04-01T12:10:14.756Z,15.60
2019-04-01T12:14:20.050Z,14.30
2019-04-01T12:18:25.360Z,13.80
2019-04-01T12:22:30.654Z,12.80
2019-04-01T12:26:36.006Z,12.10
2019-04-01T12:30:41.289Z,11.80
2019-04-01T12:34:48.200Z,11.40
2019-04-01T12:38:53.947Z,11.30
2019-04-01T12:42:59.213Z,11.20
2019-04-01T12:47:04.614Z,11.20
2019-04-01T12:51:09.894Z,11.40
2019-04-01T12:55:15.631Z,11.30
2019-04-01T12:59:21.881Z,11.40
2019-04-01T13:03:27.282Z,11.10
2019-04-01T13:07:32.542Z,11.20
2019-04-01T13:11:40.211Z,11.40
2019-04-01T13:15:45.493Z,11.50
2019-04-01T13:19:50.788Z,11.40
2019-04-01T13:23:56.105Z,11.40
2019-04-01T13:28:01.403Z,11.40
2019-04-01T13:32:06.667Z,11.60
2019-04-01T13:36:12.934Z,11.80
2019-04-01T13:40:19.617Z,11.60
2019-04-01T13:44:36.283Z,11.50
2019-04-01T13:48:31.904Z,11.60
2019-04-01T13:52:37.206Z,11.60
2019-04-01T13:56:43.077Z,11.80
2019-04-01T14:00:48.798Z,12.00
2019-04-01T14:04:54.070Z,11.90
2019-04-01T14:09:00.628Z,11.80
2019-04-01T14:13:07.662Z,12.00
2019-04-01T14:17:12.960Z,11.90
2019-04-01T14:21:20.820Z,11.80
2019-04-01T14:25:25.318Z,11.90
2019-04-01T14:29:30.602Z,11.90
2019-04-01T14:33:35.899Z,11.80
2019-04-01T14:37:41.221Z,11.60
2019-04-01T14:41:46.510Z,11.70
2019-04-01T14:45:51.771Z,11.60
2019-04-01T14:49:57.058Z,11.50
2019-04-01T14:54:02.337Z,11.60
2019-04-01T14:58:07.633Z,11.60
2019-04-01T15:02:13.011Z,11.60
2019-04-01T15:06:18.314Z,11.70
2019-04-01T15:10:23.743Z,11.70
2019-04-01T15:14:29.130Z,11.60
2019-04-01T15:18:34.563Z,11.50
2019-04-01T15:22:39.882Z,11.60
2019-04-01T15:26:45.145Z,11.60
2019-04-01T15:30:50.913Z,11.50
2019-04-01T15:34:56.317Z,11.40
2019-04-01T15:39:01.622Z,11.40
2019-04-01T15:43:08.513Z,11.40
2019-04-01T15:47:13.785Z,11.40
2019-04-01T15:51:19.117Z,11.30
2019-04-01T15:55:24.429Z,11.30
2019-04-01T15:59:29.722Z,11.20
2019-04-01T16:03:35.377Z,11.10
2019-04-01T16:07:41.816Z,11.10
2019-04-01T16:11:47.699Z,11.10
2019-04-01T16:15:53.046Z,11.10
2019-04-01T16:19:58.353Z,11.00
2019-04-01T16:24:03.622Z,10.90
2019-04-01T16:28:08.909Z,10.80
2019-04-01T16:32:14.165Z,10.80
2019-04-01T16:36:19.462Z,10.60
2019-04-01T16:40:24.783Z,10.50
2019-04-01T16:44:30.031Z,10.40
2019-04-01T16:48:35.361Z,10.30
2019-04-01T16:52:41.022Z,10.20
2019-04-01T16:56:46.273Z,10.10
2019-04-01T17:00:51.869Z,10.00
2019-04-01T17:05:00.236Z,9.90
2019-04-01T17:09:05.550Z,9.70
2019-04-01T17:13:12.824Z,9.60
2019-04-01T17:17:18.088Z,9.50
2019-04-01T17:21:23.359Z,9.30
2019-04-01T17:25:28.641Z,9.20
2019-04-01T17:29:34.087Z,9.10
2019-04-01T17:33:39.429Z,8.90
2019-04-01T17:37:44.721Z,8.70
2019-04-01T17:41:49.993Z,8.50
2019-04-01T17:45:55.261Z,8.30
2019-04-01T17:50:00.580Z,8.20
2019-04-01T17:54:05.824Z,8.10
2019-04-01T17:58:11.166Z,8.00
2019-04-01T18:02:25.358Z,7.90
2019-04-01T18:06:30.657Z,7.80
2019-04-01T18:10:35.973Z,7.60
2019-04-01T18:14:41.256Z,7.60
2019-04-01T18:18:46.525Z,7.50
2019-04-01T18:22:51.958Z,7.40
2019-04-01T18:26:57.017Z,7.40
2019-04-01T18:31:03.914Z,7.30
2019-04-01T18:35:09.432Z,7.20
2019-04-01T18:39:15.290Z,7.10
2019-04-01T18:43:20.932Z,7.10
2019-04-01T18:47:25.979Z,7.00
2019-04-01T18:51:31.246Z,6.90
2019-04-01T18:55:36.536Z,6.80
2019-04-01T18:59:41.533Z,6.80
2019-04-01T19:03:46.546Z,6.60
2019-04-01T19:07:51.791Z,6.50
2019-04-01T19:12:03.694Z,6.40
2019-04-01T19:16:04.951Z,6.30
2019-04-01T19:20:11.376Z,6.10
2019-04-01T19:24:16.766Z,5.90
2019-04-01T19:28:22.701Z,5.80
2019-04-01T19:32:27.702Z,5.70
2019-04-01T19:36:32.680Z,5.60
2019-04-01T19:40:37.706Z,5.50
2019-04-01T19:44:43.201Z,5.40
2019-04-01T19:48:48.582Z,5.20
2019-04-01T19:52:55.301Z,5.10
2019-04-01T19:57:00.642Z,5.00
2019-04-01T20:01:05.798Z,4.90
2019-04-01T20:05:11.126Z,4.80
2019-04-01T20:09:16.158Z,4.60
2019-04-01T20:13:21.121Z,4.50
2019-04-01T20:17:26.117Z,4.40
2019-04-01T20:21:31.403Z,4.50
2019-04-01T20:25:36.398Z,4.40
2019-04-01T20:29:41.493Z,4.40
2019-04-01T20:33:46.439Z,4.30
2019-04-01T20:37:51.434Z,4.30
2019-04-01T20:41:56.460Z,4.30
2019-04-01T20:46:01.489Z,4.20
2019-04-01T20:50:09.593Z,4.10
2019-04-01T20:54:16.158Z,4.00
2019-04-01T20:58:21.548Z,3.90
2019-04-01T21:02:26.598Z,3.80
2019-04-01T21:06:31.606Z,3.70
2019-04-01T21:10:36.602Z,3.80
2019-04-01T21:14:42.574Z,3.80
2019-04-01T21:18:48.243Z,3.80
2019-04-01T21:22:54.678Z,3.70
2019-04-01T21:26:59.705Z,3.70
2019-04-01T21:31:04.804Z,3.60
2019-04-01T21:35:10.170Z,3.60
2019-04-01T21:39:15.144Z,3.40
2019-04-01T21:43:20.271Z,3.40
2019-04-01T21:47:25.770Z,3.40
2019-04-01T21:51:30.892Z,3.30
2019-04-01T21:55:35.885Z,3.20
2019-04-01T21:59:40.863Z,3.10
2019-04-01T22:03:45.947Z,3.00
2019-04-01T22:07:50.954Z,3.00
2019-04-01T22:11:56.013Z,3.00
2019-04-01T22:16:01.041Z,2.90
2019-04-01T22:20:07.374Z,3.00
2019-04-01T22:24:12.369Z,3.00
2019-04-01T22:28:17.382Z,2.90
2019-04-01T22:32:22.457Z,2.90
2019-04-01T22:36:31.188Z,2.90
2019-04-01T22:40:34.073Z,3.10
2019-04-01T22:44:39.020Z,3.10
2019-04-01T22:48:44.009Z,3.00
2019-04-01T22:52:49.036Z,2.80
2019-04-01T22:56:54.074Z,2.70
2019-04-01T23:00:59.068Z,2.60
2019-04-01T23:05:05.080Z,2.50
2019-04-01T23:09:10.081Z,2.80
2019-04-01T23:13:15.097Z,2.80
2019-04-01T23:17:20.093Z,2.80
2019-04-01T23:21:25.090Z,3.00
2019-04-01T23:25:30.086Z,3.10
2019-04-01T23:29:35.074Z,3.00
2019-04-01T23:33:40.057Z,3.00
2019-04-01T23:37:45.069Z,3.20
2019-04-01T23:41:50.067Z,3.40
2019-04-01T23:45:55.118Z,3.70
2019-04-01T23:50:00.118Z,4.00
2019-04-01T23:54:05.178Z,4.30
2019-04-01T23:58:10.177Z,4.40
